Time;durP1;ratioP1;P1;durP2;ratioP2;P2;SDS_P1;SDS_P2;PMS_P1;PMS_P2;Temp;Humidity;BMP_temperature;BMP_pressure;BME280_temperature;BME280_humidity;BME280_pressure;Samples;Min_cycle;Max_cycle;Signal;HPM_P1;HPM_P2
2022/06/11 00:01:14;;;;;;;;;;;;;;;22.85;48.99;101646.00;4958697;28;4203;-58
2022/06/11 00:03:40;;;;;;;;;;;;;;;22.85;48.92;101658.31;4958422;28;4107;-59
2022/06/11 00:06:07;;;;;;;;;;;;;;;22.84;49.16;101651.03;4959290;28;5348;-59
2022/06/11 00:08:33;;;;;;;;;;;;;;;22.84;48.96;101651.03;4959842;28;4174;-58
2022/06/11 00:10:59;;;;;;;;;;;;;;;22.83;49.26;101651.69;4958858;28;4278;-59
2022/06/11 00:13:26;;;;;;;;;;;;;;;22.84;49.11;101651.03;4962993;28;5632;-59
2022/06/11 00:15:53;;;;;;;;;;;;;;;22.85;48.98;101658.31;4951282;28;4268;-63
2022/06/11 00:18:20;;;;;;;;;;;;;;;22.87;49.30;101654.78;4964192;28;4284;-59
2022/06/11 00:20:46;;;;;;;;;;;;;;;22.87;49.44;101655.50;4964491;28;4258;-59
2022/06/11 00:23:12;;;;;;;;;;;;;;;22.86;49.53;101659.81;4960172;28;4225;-60
2022/06/11 00:25:39;;;;;;;;;;;;;;;22.85;49.36;101658.31;4961408;28;4183;-58
2022/06/11 00:28:05;;;;;;;;;;;;;;;22.85;49.73;101655.41;4959374;28;4259;-59
2022/06/11 00:30:32;;;;;;;;;;;;;;;22.84;49.33;101653.94;4964151;28;4072;-59
2022/06/11 00:32:58;;;;;;;;;;;;;;;22.83;49.81;101654.56;4965073;28;4232;-59
2022/06/11 00:35:25;;;;;;;;;;;;;;;22.82;49.69;101653.84;4963286;28;5351;-59
2022/06/11 00:37:51;;;;;;;;;;;;;;;22.82;50.00;101653.84;4960647;28;4220;-58
2022/06/11 00:40:18;;;;;;;;;;;;;;;22.83;49.87;101649.53;4964015;28;4223;-59
2022/06/11 00:42:45;;;;;;;;;;;;;;;22.82;50.07;101648.06;4963192;28;4333;-59
2022/06/11 00:45:12;;;;;;;;;;;;;;;22.81;49.87;101646.53;4964406;28;4225;-58
2022/06/11 00:47:39;;;;;;;;;;;;;;;22.82;50.00;101647.31;4966073;28;4470;-58
2022/06/11 00:50:20;;;;;;;;;;;;;;;22.80;50.09;101645.06;4960666;28;4456;-59
2022/06/11 00:52:46;;;;;;;;;;;;;;;22.80;50.17;101645.81;4977112;28;5265;-59
2022/06/11 00:55:14;;;;;;;;;;;;;;;22.80;49.87;101645.81;4962299;28;4411;-59
2022/06/11 00:57:45;;;;;;;;;;;;;;;22.81;50.24;101640.78;4960793;28;4102;-59
2022/06/11 01:00:15;;;;;;;;;;;;;;;22.80;50.00;101639.28;4961478;28;4268;-59
2022/06/11 01:02:43;;;;;;;;;;;;;;;22.79;50.20;101638.56;4963206;28;5320;-59
2022/06/11 01:05:10;;;;;;;;;;;;;;;22.80;50.20;101633.50;4965834;28;4155;-59
2022/06/11 01:07:43;;;;;;;;;;;;;;;22.79;49.91;101626.22;4951299;28;4311;-59
2022/06/11 01:10:28;;;;;;;;;;;;;;;22.78;50.22;101631.28;4959976;28;4339;-59
2022/06/11 01:13:06;;;;;;;;;;;;;;;22.79;50.37;101626.22;4964684;28;4020;-58
2022/06/11 01:15:44;;;;;;;;;;;;;;;22.78;50.10;101636.31;4961258;28;5520;-59
2022/06/11 01:18:16;;;;;;;;;;;;;;;22.78;50.48;101628.38;4960548;28;5421;-59
2022/06/11 01:20:54;;;;;;;;;;;;;;;22.79;50.45;101626.22;4957694;28;4250;-59
2022/06/11 01:23:33;;;;;;;;;;;;;;;22.79;50.38;101620.47;4964169;28;4178;-59
2022/06/11 01:26:18;;;;;;;;;;;;;;;22.79;50.25;101617.56;4963667;28;4362;-59
2022/06/11 01:29:02;;;;;;;;;;;;;;;22.80;50.17;101616.19;4962337;28;4229;-59
2022/06/11 01:31:31;;;;;;;;;;;;;;;22.79;50.54;101620.47;4947317;28;4182;-58
2022/06/11 01:34:08;;;;;;;;;;;;;;;22.78;50.35;101618.97;4958888;28;4226;-60
2022/06/11 01:36:39;;;;;;;;;;;;;;;22.78;50.37;101624.75;4958509;28;4099;-59
2022/06/11 01:39:17;;;;;;;;;;;;;;;22.77;50.39;101618.22;4976002;28;4249;-58
2022/06/11 01:41:48;;;;;;;;;;;;;;;22.77;50.15;101629.03;4965041;28;4276;-59
2022/06/11 01:44:18;;;;;;;;;;;;;;;22.76;50.58;101622.50;4967317;28;4364;-59
2022/06/11 01:46:45;;;;;;;;;;;;;;;22.77;50.48;101629.03;4968183;28;4144;-59
2022/06/11 01:49:21;;;;;;;;;;;;;;;22.75;50.46;101626.06;4965488;28;4215;-58
2022/06/11 01:51:51;;;;;;;;;;;;;;;22.74;50.51;101624.53;4958492;28;4236;-59
2022/06/11 01:54:29;;;;;;;;;;;;;;;22.73;50.42;101623.06;4962688;28;4385;-59
2022/06/11 01:57:09;;;;;;;;;;;;;;;22.73;50.70;101618.03;4967161;28;4244;-59
2022/06/11 01:59:52;;;;;;;;;;;;;;;22.73;50.40;101626.69;4967681;28;4300;-59
2022/06/11 02:02:28;;;;;;;;;;;;;;;22.73;50.64;101618.03;4964665;28;4395;-59
2022/06/11 02:04:55;;;;;;;;;;;;;;;22.72;50.57;101621.56;4956970;28;4533;-59
2022/06/11 02:07:24;;;;;;;;;;;;;;;22.70;50.81;101618.56;4965168;28;4231;-58
2022/06/11 02:09:59;;;;;;;;;;;;;;;22.69;50.67;101620.72;4961005;28;4254;-59
2022/06/11 02:12:28;;;;;;;;;;;;;;;22.70;50.54;101625.13;4965042;28;4513;-59
2022/06/11 02:14:59;;;;;;;;;;;;;;;22.70;50.76;101625.13;4959461;28;4250;-59
2022/06/11 02:17:33;;;;;;;;;;;;;;;22.70;50.83;101621.47;4966701;28;4225;-59
2022/06/11 02:20:05;;;;;;;;;;;;;;;22.70;50.53;101624.34;4956412;28;4570;-60
2022/06/11 02:22:55;;;;;;;;;;;;;;;22.68;50.54;101622.13;4962712;28;4234;-59
2022/06/11 02:25:23;;;;;;;;;;;;;;;22.69;50.90;101622.88;4959494;28;4242;-58
2022/06/11 02:27:50;;;;;;;;;;;;;;;22.68;50.50;101627.16;4966891;28;4186;-58
2022/06/11 02:30:17;;;;;;;;;;;;;;;22.68;50.65;101621.38;4965748;28;5298;-59
2022/06/11 02:32:44;;;;;;;;;;;;;;;22.67;50.86;101625.66;4958209;28;3982;-59
2022/06/11 02:35:11;;;;;;;;;;;;;;;22.68;50.65;101627.16;4963710;28;4110;-59
2022/06/11 02:37:38;;;;;;;;;;;;;;;22.68;50.89;101630.03;4959512;28;4053;-58
2022/06/11 02:40:15;;;;;;;;;;;;;;;22.67;50.92;101626.38;4966177;28;4545;-59
2022/06/11 02:42:42;;;;;;;;;;;;;;;22.65;50.72;101619.78;4960709;28;4339;-59
2022/06/11 02:45:10;;;;;;;;;;;;;;;22.64;50.96;101618.28;4965394;28;4216;-59
2022/06/11 02:47:37;;;;;;;;;;;;;;;22.64;51.18;101624.06;4966164;28;4213;-58
2022/06/11 02:50:04;;;;;;;;;;;;;;;22.62;51.22;101624.69;4958943;28;4246;-59
2022/06/11 02:52:31;;;;;;;;;;;;;;;22.63;51.22;101625.44;4962198;28;5278;-59
2022/06/11 02:55:03;;;;;;;;;;;;;;;22.63;50.88;101619.66;4969128;28;4168;-59
2022/06/11 02:57:29;;;;;;;;;;;;;;;22.63;51.01;101631.22;4965550;28;5230;-59
2022/06/11 02:59:56;;;;;;;;;;;;;;;22.62;51.21;101629.75;4966802;28;4109;-59
2022/06/11 03:02:22;;;;;;;;;;;;;;;22.61;51.17;101626.09;4964281;28;4148;-59
2022/06/11 03:04:50;;;;;;;;;;;;;;;22.62;51.06;101629.75;4964860;28;4196;-58
2022/06/11 03:07:16;;;;;;;;;;;;;;;22.62;51.30;101629.75;4964085;28;4171;-59
2022/06/11 03:09:43;;;;;;;;;;;;;;;22.61;51.25;101628.22;4959495;28;5353;-59
2022/06/11 03:12:10;;;;;;;;;;;;;;;22.62;51.25;101635.50;4965747;28;4351;-59
2022/06/11 03:14:36;;;;;;;;;;;;;;;22.61;51.24;101629.00;4963148;28;5590;-59
2022/06/11 03:17:02;;;;;;;;;;;;;;;22.61;51.45;101640.53;4965685;28;4503;-59
2022/06/11 03:19:29;;;;;;;;;;;;;;;22.61;51.86;101636.88;4962378;28;4076;-59
2022/06/11 03:21:55;;;;;;;;;;;;;;;22.61;51.75;101640.53;4955038;28;5166;-58
2022/06/11 03:24:22;;;;;;;;;;;;;;;22.61;51.99;101631.88;4962897;28;4200;-59
2022/06/11 03:26:48;;;;;;;;;;;;;;;22.60;51.93;101639.03;4963625;28;4276;-60
2022/06/11 03:29:15;;;;;;;;;;;;;;;22.61;51.65;101639.78;4966379;28;4293;-59
2022/06/11 03:31:45;;;;;;;;;;;;;;;22.61;52.04;101642.66;4962768;28;5416;-59
2022/06/11 03:34:11;;;;;;;;;;;;;;;22.61;51.92;101654.22;4961716;28;4196;-59
2022/06/11 03:36:38;;;;;;;;;;;;;;;22.59;52.13;101649.09;4960063;28;4034;-59
2022/06/11 03:39:04;;;;;;;;;;;;;;;22.59;52.15;101632.53;4961261;28;5569;-59
2022/06/11 03:41:31;;;;;;;;;;;;;;;22.58;51.99;101642.56;4965589;28;4255;-59
2022/06/11 03:43:57;;;;;;;;;;;;;;;22.59;52.35;101644.06;4966133;28;4280;-59
2022/06/11 03:46:24;;;;;;;;;;;;;;;22.58;52.13;101642.56;4966275;28;4795;-59
2022/06/11 03:48:50;;;;;;;;;;;;;;;22.58;52.17;101642.56;4965254;28;4167;-59
2022/06/11 03:51:17;;;;;;;;;;;;;;;22.56;52.42;101651.16;4962337;28;4312;-59
2022/06/11 03:53:43;;;;;;;;;;;;;;;22.57;52.39;101646.09;4957980;28;4254;-59
2022/06/11 03:56:10;;;;;;;;;;;;;;;22.57;52.36;101638.19;4964522;28;5034;-59
2022/06/11 03:58:37;;;;;;;;;;;;;;;22.56;52.43;101645.38;4966181;28;4201;-59
2022/06/11 04:01:16;;;;;;;;;;;;;;;22.56;52.53;101639.59;4964633;28;4237;-59
2022/06/11 04:03:49;;;;;;;;;;;;;;;22.57;52.50;101641.06;4962632;28;4039;-59
2022/06/11 04:06:17;;;;;;;;;;;;;;;22.57;52.72;101641.06;4963065;28;4262;-58
2022/06/11 04:08:43;;;;;;;;;;;;;;;22.57;52.60;101652.63;4965136;28;4219;-59
2022/06/11 04:11:09;;;;;;;;;;;;;;;22.58;52.87;101656.25;4963372;28;4047;-59
2022/06/11 04:13:36;;;;;;;;;;;;;;;22.58;53.01;101654.09;4965391;28;4063;-59
2022/06/11 04:16:03;;;;;;;;;;;;;;;22.56;52.97;101651.16;4965902;28;4311;-59
2022/06/11 04:18:31;;;;;;;;;;;;;;;22.58;53.14;101653.38;4959666;28;4211;-59
2022/06/11 04:20:58;;;;;;;;;;;;;;;22.58;52.95;101659.13;4959775;28;4300;-59
2022/06/11 04:23:27;;;;;;;;;;;;;;;22.58;53.08;101664.91;4958085;28;4204;-59
2022/06/11 04:25:53;;;;;;;;;;;;;;;22.57;52.90;101655.50;4963375;28;5464;-64
2022/06/11 04:28:22;;;;;;;;;;;;;;;22.58;52.89;101662.75;4965694;28;4259;-59
2022/06/11 04:30:49;;;;;;;;;;;;;;;22.57;53.29;101657.66;4963586;28;5365;-58
2022/06/11 04:33:15;;;;;;;;;;;;;;;22.57;53.18;101669.94;4964476;28;4193;-59
2022/06/11 04:35:41;;;;;;;;;;;;;;;22.57;53.26;101660.53;4962788;28;4070;-59
2022/06/11 04:38:08;;;;;;;;;;;;;;;22.56;53.41;101653.25;4963250;28;4308;-59
2022/06/11 04:40:34;;;;;;;;;;;;;;;22.56;53.46;101656.16;4965560;28;4089;-59
2022/06/11 04:43:00;;;;;;;;;;;;;;;22.57;53.55;101649.00;4965349;28;4003;-59
2022/06/11 04:45:27;;;;;;;;;;;;;;;22.56;53.14;101651.16;4961701;28;4208;-59
2022/06/11 04:47:53;;;;;;;;;;;;;;;22.57;53.27;101646.09;4962613;28;5435;-59
2022/06/11 04:50:21;;;;;;;;;;;;;;;22.56;53.32;101654.03;4962622;28;4105;-59
2022/06/11 04:52:47;;;;;;;;;;;;;;;22.55;53.24;101649.63;4964245;28;4193;-58
2022/06/11 04:55:14;;;;;;;;;;;;;;;22.55;53.21;101658.28;4961410;28;4397;-59
2022/06/11 04:57:41;;;;;;;;;;;;;;;22.55;53.42;101655.41;4965504;28;4197;-59
2022/06/11 05:00:08;;;;;;;;;;;;;;;22.56;53.41;101654.03;4964855;28;4234;-59
2022/06/11 05:02:34;;;;;;;;;;;;;;;22.55;53.56;101660.44;4965110;28;4235;-59
2022/06/11 05:05:01;;;;;;;;;;;;;;;22.55;53.35;101655.41;4963203;28;5551;-59
2022/06/11 05:07:27;;;;;;;;;;;;;;;22.56;53.37;101659.03;4967176;28;4072;-59
2022/06/11 05:09:53;;;;;;;;;;;;;;;22.55;53.33;101664.06;4966174;28;5370;-59
2022/06/11 05:12:20;;;;;;;;;;;;;;;22.55;53.38;101661.19;4965402;28;4287;-58
2022/06/11 05:14:46;;;;;;;;;;;;;;;22.55;53.50;101666.94;4965817;28;5253;-59
2022/06/11 05:17:12;;;;;;;;;;;;;;;22.56;53.44;101673.47;4969330;28;5259;-59
2022/06/11 05:19:39;;;;;;;;;;;;;;;22.54;53.76;101671.25;4966022;28;4469;-59
2022/06/11 05:22:05;;;;;;;;;;;;;;;22.55;53.70;101675.59;4967727;28;5512;-59
2022/06/11 05:24:31;;;;;;;;;;;;;;;22.54;53.66;101671.25;4961060;28;4288;-59
2022/06/11 05:27:03;;;;;;;;;;;;;;;22.55;53.68;101683.53;4967628;28;5322;-60
2022/06/11 05:29:30;;;;;;;;;;;;;;;22.54;53.66;101674.13;4967969;28;4247;-59
2022/06/11 05:31:56;;;;;;;;;;;;;;;22.55;53.98;101689.31;4958857;28;4210;-59
2022/06/11 05:34:24;;;;;;;;;;;;;;;22.54;53.86;101682.78;4968781;28;4340;-59
2022/06/11 05:36:51;;;;;;;;;;;;;;;22.54;53.77;101679.13;4967651;28;4090;-59
2022/06/11 05:39:17;;;;;;;;;;;;;;;22.55;53.96;101684.28;4968517;28;4168;-59
2022/06/11 05:41:44;;;;;;;;;;;;;;;22.55;54.07;101683.53;4964895;28;4238;-59
2022/06/11 05:44:10;;;;;;;;;;;;;;;22.55;54.02;101677.75;4964220;28;4237;-59
2022/06/11 05:46:37;;;;;;;;;;;;;;;22.54;53.74;101679.91;4968343;28;4297;-59
2022/06/11 05:49:04;;;;;;;;;;;;;;;22.55;53.69;101672.72;4965659;28;4185;-59
2022/06/11 05:51:32;;;;;;;;;;;;;;;22.54;54.02;101682.78;4965361;28;4169;-59
2022/06/11 05:53:59;;;;;;;;;;;;;;;22.54;53.95;101682.78;4959138;28;4094;-60
2022/06/11 05:56:25;;;;;;;;;;;;;;;22.55;53.89;101677.75;4965252;28;4245;-59
2022/06/11 05:58:53;;;;;;;;;;;;;;;22.54;53.86;101682.78;4966973;28;4247;-59
2022/06/11 06:01:26;;;;;;;;;;;;;;;22.55;53.67;101681.38;4963215;28;5326;-59
2022/06/11 06:03:52;;;;;;;;;;;;;;;22.55;53.68;101681.38;4960943;28;4299;-59
2022/06/11 06:06:19;;;;;;;;;;;;;;;22.54;53.63;101679.91;4959579;28;4181;-59
2022/06/11 06:08:45;;;;;;;;;;;;;;;22.55;53.85;101666.94;4966397;28;4119;-58
2022/06/11 06:11:11;;;;;;;;;;;;;;;22.55;53.83;101675.59;4961997;28;4392;-60
2022/06/11 06:13:47;;;;;;;;;;;;;;;22.55;53.87;101672.72;4966440;28;4697;-59
2022/06/11 06:16:17;;;;;;;;;;;;;;;22.54;53.45;101665.47;4965045;28;4161;-59
2022/06/11 06:18:44;;;;;;;;;;;;;;;22.55;53.70;101672.72;4967110;28;4204;-59
2022/06/11 06:21:10;;;;;;;;;;;;;;;22.55;53.63;101678.50;4964421;28;4160;-59
2022/06/11 06:23:37;;;;;;;;;;;;;;;22.56;53.56;101677.13;4966645;28;4364;-59
2022/06/11 06:26:03;;;;;;;;;;;;;;;22.56;53.50;101674.22;4967268;28;4077;-59
2022/06/11 06:28:31;;;;;;;;;;;;;;;22.56;53.45;101680.00;4962480;28;4096;-58
2022/06/11 06:30:58;;;;;;;;;;;;;;;22.56;53.44;101682.91;4966405;28;4762;-58
2022/06/11 06:33:30;;;;;;;;;;;;;;;22.58;53.13;101677.19;4962225;28;4350;-58
2022/06/11 06:35:57;;;;;;;;;;;;;;;22.58;53.34;101682.97;4967053;28;4186;-59
2022/06/11 06:38:23;;;;;;;;;;;;;;;22.59;53.09;101690.25;4962292;28;4000;-59
2022/06/11 06:40:49;;;;;;;;;;;;;;;22.58;53.19;101682.22;4964140;28;4187;-59
2022/06/11 06:43:16;;;;;;;;;;;;;;;22.60;52.87;101679.44;4966521;28;4457;-60
2022/06/11 06:45:42;;;;;;;;;;;;;;;22.59;53.29;101684.47;4960006;28;4331;-61
2022/06/11 06:48:09;;;;;;;;;;;;;;;22.62;53.13;101693.25;4958265;28;4045;-56
2022/06/11 06:50:35;;;;;;;;;;;;;;;22.62;52.60;101688.22;4966592;28;4565;-61
2022/06/11 06:53:01;;;;;;;;;;;;;;;22.61;52.83;101686.72;4963031;28;4403;-59
2022/06/11 06:55:28;;;;;;;;;;;;;;;22.66;52.68;101687.69;4968601;28;4209;-60
2022/06/11 06:57:54;;;;;;;;;;;;;;;22.66;53.09;101679.03;4967688;28;4255;-62
2022/06/11 07:00:20;;;;;;;;;;;;;;;22.64;52.87;101679.66;4967523;28;4966;-61
2022/06/11 07:02:47;;;;;;;;;;;;;;;22.69;52.97;101680.59;4964749;28;4253;-61
2022/06/11 07:05:13;;;;;;;;;;;;;;;22.70;52.92;101682.84;4966290;28;4069;-59
2022/06/11 07:07:40;;;;;;;;;;;;;;;22.91;56.00;101684.59;4964100;28;5372;-59
2022/06/11 07:10:07;;;;;;;;;;;;;;;22.98;53.46;101683.50;4966616;28;4105;-60
2022/06/11 07:12:33;;;;;;;;;;;;;;;22.94;51.91;101671.00;4967932;28;5205;-61
2022/06/11 07:15:00;;;;;;;;;;;;;;;22.90;51.71;101679.47;4966175;28;4335;-60
2022/06/11 07:17:26;;;;;;;;;;;;;;;22.88;52.09;101685.13;4961182;28;4614;-61
2022/06/11 07:19:57;;;;;;;;;;;;;;;22.85;51.98;101675.63;4957043;28;4155;-60
2022/06/11 07:22:25;;;;;;;;;;;;;;;22.84;52.07;101671.25;4965070;28;4128;-60
2022/06/11 07:24:52;;;;;;;;;;;;;;;22.85;51.78;101666.22;4960298;28;4107;-60
2022/06/11 07:27:19;;;;;;;;;;;;;;;22.83;51.91;101669.75;4968446;28;4169;-60
2022/06/11 07:29:50;;;;;;;;;;;;;;;22.82;52.07;101665.38;4965761;28;4074;-60
2022/06/11 07:32:24;;;;;;;;;;;;;;;22.82;52.15;101665.38;4963138;28;4158;-60
2022/06/11 07:34:50;;;;;;;;;;;;;;;22.82;52.02;101659.59;4964086;28;4214;-61
2022/06/11 07:37:17;;;;;;;;;;;;;;;22.83;51.91;101666.88;4963263;28;5254;-60
2022/06/11 07:39:43;;;;;;;;;;;;;;;22.82;51.66;101662.50;4965594;28;4134;-60
2022/06/11 07:42:10;;;;;;;;;;;;;;;22.81;52.00;101660.97;4960733;28;4192;-61
2022/06/11 07:44:37;;;;;;;;;;;;;;;22.81;51.65;101658.09;4965388;28;4336;-60
2022/06/11 07:47:04;;;;;;;;;;;;;;;22.82;51.73;101668.28;4959260;28;5265;-60
2022/06/11 07:49:30;;;;;;;;;;;;;;;22.82;51.41;101665.38;4967331;28;4048;-61
2022/06/11 07:51:57;;;;;;;;;;;;;;;22.82;51.77;101664.63;4965422;28;4302;-61
2022/06/11 07:54:23;;;;;;;;;;;;;;;22.82;51.73;101662.50;4967141;28;4240;-60
2022/06/11 07:56:49;;;;;;;;;;;;;;;22.82;51.60;101659.59;4965048;28;4338;-61
2022/06/11 07:59:16;;;;;;;;;;;;;;;22.82;51.55;101659.59;4961954;28;4061;-60
2022/06/11 08:01:42;;;;;;;;;;;;;;;22.83;51.18;101666.88;4957282;28;4320;-61
2022/06/11 08:04:08;;;;;;;;;;;;;;;22.83;51.26;101658.19;4964741;28;5268;-60
2022/06/11 08:06:35;;;;;;;;;;;;;;;22.83;51.27;101655.31;4967503;28;5234;-61
2022/06/11 08:09:01;;;;;;;;;;;;;;;22.84;50.99;101661.81;4965739;28;4243;-60
2022/06/11 08:11:28;;;;;;;;;;;;;;;22.82;50.95;101653.84;4958888;28;6252;-61
2022/06/11 08:13:54;;;;;;;;;;;;;;;22.83;51.01;101661.09;4961068;28;4098;-61
2022/06/11 08:16:20;;;;;;;;;;;;;;;22.83;51.03;101649.53;4961587;28;5268;-60
2022/06/11 08:18:47;;;;;;;;;;;;;;;22.84;51.03;101650.28;4963613;28;4082;-60
2022/06/11 08:21:14;;;;;;;;;;;;;;;22.84;50.94;101656.81;4962390;28;4284;-61
2022/06/11 08:23:42;;;;;;;;;;;;;;;22.84;50.90;101656.81;4960020;28;5330;-61
2022/06/11 08:26:09;;;;;;;;;;;;;;;22.85;50.58;101652.53;4961156;28;5559;-60
2022/06/11 08:28:35;;;;;;;;;;;;;;;22.85;50.64;101658.31;4962962;28;4239;-60
2022/06/11 08:31:04;;;;;;;;;;;;;;;22.85;50.93;101652.53;4966573;28;4067;-61
2022/06/11 08:33:32;;;;;;;;;;;;;;;22.85;50.58;101652.53;4966077;28;4359;-61
2022/06/11 08:35:58;;;;;;;;;;;;;;;22.85;50.75;101652.53;4964064;28;5290;-61
2022/06/11 08:38:24;;;;;;;;;;;;;;;22.86;50.79;101650.38;4967746;28;5457;-61
2022/06/11 08:40:53;;;;;;;;;;;;;;;22.87;50.48;101649.75;4964789;28;5338;-60
2022/06/11 08:43:23;;;;;;;;;;;;;;;22.87;50.26;101652.63;4970846;28;4274;-60
2022/06/11 08:45:58;;;;;;;;;;;;;;;22.87;50.42;101649.00;4969270;28;5432;-61
2022/06/11 08:48:37;;;;;;;;;;;;;;;22.91;50.27;101649.94;4966519;28;5194;-61
2022/06/11 08:51:03;;;;;;;;;;;;;;;22.92;50.33;101651.41;4969166;28;5285;-61
2022/06/11 08:53:30;;;;;;;;;;;;;;;22.94;50.10;101648.63;4971192;28;4230;-61
2022/06/11 08:55:56;;;;;;;;;;;;;;;22.94;49.98;101648.63;4967131;28;4255;-62
2022/06/11 08:58:49;;;;;;;;;;;;;;;22.89;49.83;101652.72;4969704;28;4085;-66
2022/06/11 09:01:34;;;;;;;;;;;;;;;22.91;49.75;101643.44;4966386;28;4096;-61
2022/06/11 09:04:10;;;;;;;;;;;;;;;22.91;49.60;101649.94;4967461;28;4277;-60
2022/06/11 09:06:41;;;;;;;;;;;;;;;22.91;50.27;101644.16;4961637;28;4281;-61
2022/06/11 09:09:18;;;;;;;;;;;;;;;22.91;50.49;101643.44;4965368;28;5308;-62
2022/06/11 09:11:53;;;;;;;;;;;;;;;22.91;50.64;101649.19;4960229;28;5329;-61
2022/06/11 09:14:26;;;;;;;;;;;;;;;22.92;50.84;101639.88;4966290;28;5665;-61
2022/06/11 09:17:15;;;;;;;;;;;;;;;22.92;50.33;101642.03;4965467;28;4188;-60
2022/06/11 09:20:00;;;;;;;;;;;;;;;22.92;50.33;101639.88;4961652;28;5567;-60
2022/06/11 09:22:27;;;;;;;;;;;;;;;22.94;49.95;101637.09;4968849;28;4257;-61
2022/06/11 09:25:03;;;;;;;;;;;;;;;22.98;49.72;101637.28;4961431;28;4184;-66
2022/06/11 09:27:37;;;;;;;;;;;;;;;22.97;49.87;101635.78;4959020;28;4192;-64
2022/06/11 09:30:05;;;;;;;;;;;;;;;22.98;49.82;101633.66;4956387;28;4188;-65
2022/06/11 09:32:44;;;;;;;;;;;;;;;23.03;50.52;101625.97;4958071;28;4252;-66
2022/06/11 09:35:12;;;;;;;;;;;;;;;23.10;50.20;101630.63;4951267;28;4367;-59
2022/06/11 09:37:51;;;;;;;;;;;;;;;23.07;50.58;101626.16;4953644;28;4154;-67
2022/06/11 09:40:19;;;;;;;;;;;;;;;23.05;50.59;101628.94;4951612;28;4191;-70
2022/06/11 09:42:55;;;;;;;;;;;;;;;23.05;50.36;101628.94;4955094;28;4409;-66
2022/06/11 09:45:27;;;;;;;;;;;;;;;23.10;49.93;101621.97;4960187;28;4341;-66
2022/06/11 09:48:12;;;;;;;;;;;;;;;23.11;50.09;101621.31;4959571;28;4708;-66
2022/06/11 09:50:51;;;;;;;;;;;;;;;23.11;50.16;101617.66;4967472;28;4033;-66
2022/06/11 09:53:20;;;;;;;;;;;;;;;23.10;50.14;101630.63;4967577;28;4407;-66
2022/06/11 09:55:50;;;;;;;;;;;;;;;23.06;49.74;101627.53;4969738;28;4222;-66
2022/06/11 09:58:22;;;;;;;;;;;;;;;23.10;50.01;101619.06;4965888;28;5454;-66
2022/06/11 10:00:57;;;;;;;;;;;;;;;23.10;50.01;101619.06;4965559;28;4204;-66
2022/06/11 10:03:38;;;;;;;;;;;;;;;23.09;50.05;101621.22;4959989;28;4282;-66
2022/06/11 10:06:14;;;;;;;;;;;;;;;23.07;50.15;101620.38;4959802;28;4080;-66
2022/06/11 10:08:43;;;;;;;;;;;;;;;23.06;50.12;101631.16;4958816;28;5331;-66
2022/06/11 10:11:11;;;;;;;;;;;;;;;23.03;49.93;101623.81;4968889;28;4267;-66
2022/06/11 10:13:49;;;;;;;;;;;;;;;23.02;49.95;101630.22;4964409;28;4256;-66
2022/06/11 10:16:32;;;;;;;;;;;;;;;23.03;50.16;101626.69;4960220;28;4138;-66
2022/06/11 10:19:02;;;;;;;;;;;;;;;23.03;49.98;101620.91;4961552;28;4221;-66
2022/06/11 10:21:28;;;;;;;;;;;;;;;23.03;50.05;101623.06;4961246;28;4567;-66
2022/06/11 10:23:56;;;;;;;;;;;;;;;23.08;50.04;101627.63;4959360;28;4397;-66
2022/06/11 10:26:23;;;;;;;;;;;;;;;23.03;50.02;101623.06;4964822;28;5369;-66
2022/06/11 10:28:51;;;;;;;;;;;;;;;23.04;50.11;101624.53;4965873;28;4080;-66
2022/06/11 10:31:23;;;;;;;;;;;;;;;23.04;50.17;101631.06;4960008;28;3974;-66
2022/06/11 10:33:51;;;;;;;;;;;;;;;23.04;50.23;101627.44;4964037;28;4103;-66
2022/06/11 10:36:22;;;;;;;;;;;;;;;23.03;50.20;101625.97;4965932;28;5191;-66
2022/06/11 10:38:58;;;;;;;;;;;;;;;23.04;50.47;101627.44;4961768;28;4321;-65
2022/06/11 10:41:32;;;;;;;;;;;;;;;23.04;50.58;101621.66;4964682;28;4194;-65
2022/06/11 10:44:02;;;;;;;;;;;;;;;23.04;50.14;101621.66;4956588;28;4023;-66
2022/06/11 10:46:29;;;;;;;;;;;;;;;23.04;50.12;101621.66;4966516;28;5567;-66
2022/06/11 10:48:56;;;;;;;;;;;;;;;23.05;50.28;101608.72;4964400;28;4191;-66
2022/06/11 10:51:23;;;;;;;;;;;;;;;23.04;50.49;101616.63;4964786;28;4215;-66
2022/06/11 10:54:01;;;;;;;;;;;;;;;23.05;50.25;101614.50;4959670;28;4263;-66
2022/06/11 10:56:34;;;;;;;;;;;;;;;23.04;50.28;101604.31;4964643;28;4165;-66
2022/06/11 10:59:02;;;;;;;;;;;;;;;23.04;50.28;101598.56;4964265;28;4153;-66
2022/06/11 11:01:30;;;;;;;;;;;;;;;23.07;50.16;101603.03;4966812;28;4196;-66
2022/06/11 11:03:57;;;;;;;;;;;;;;;23.06;50.28;101601.53;4967662;28;5243;-66
2022/06/11 11:06:28;;;;;;;;;;;;;;;23.06;50.63;101598.66;4978993;28;4000;-66
2022/06/11 11:08:58;;;;;;;;;;;;;;;23.06;50.48;101601.53;4963556;28;5003;-66
2022/06/11 11:11:25;;;;;;;;;;;;;;;23.06;50.46;101598.66;4967724;28;4300;-66
2022/06/11 11:13:51;;;;;;;;;;;;;;;23.06;50.61;101595.75;4966727;28;4237;-66
2022/06/11 11:16:23;;;;;;;;;;;;;;;23.06;50.40;101605.16;4965475;28;4075;-66
2022/06/11 11:19:00;;;;;;;;;;;;;;;23.06;50.28;101590.72;4965017;28;4403;-66
2022/06/11 11:21:34;;;;;;;;;;;;;;;23.06;50.52;101596.50;4960453;28;4145;-66
2022/06/11 11:24:02;;;;;;;;;;;;;;;23.06;50.57;101599.38;4963724;28;5405;-66
2022/06/11 11:26:54;;;;;;;;;;;;;;;23.05;50.47;101595.03;4966133;28;4255;-66
2022/06/11 11:29:23;;;;;;;;;;;;;;;23.06;50.53;101587.09;4957339;28;4197;-66
2022/06/11 11:32:04;;;;;;;;;;;;;;;23.10;50.46;101590.19;4968014;28;4222;-66
2022/06/11 11:34:31;;;;;;;;;;;;;;;23.07;50.52;101582.81;4961836;28;4211;-66
2022/06/11 11:37:04;;;;;;;;;;;;;;;23.06;50.48;101595.75;4965709;28;4186;-66
2022/06/11 11:39:30;;;;;;;;;;;;;;;23.05;50.50;101595.03;4963662;28;4010;-66
2022/06/11 11:42:02;;;;;;;;;;;;;;;23.04;50.43;101581.97;4964607;28;4250;-66
2022/06/11 11:44:35;;;;;;;;;;;;;;;23.05;50.61;101583.47;4966635;28;4091;-65
2022/06/11 11:47:02;;;;;;;;;;;;;;;23.05;50.82;101592.13;4966806;28;4118;-67
2022/06/11 11:49:29;;;;;;;;;;;;;;;23.06;50.47;101595.75;4967845;28;4122;-66
2022/06/11 11:52:02;;;;;;;;;;;;;;;23.05;50.88;101594.28;4958274;28;5440;-67
2022/06/11 11:54:28;;;;;;;;;;;;;;;23.05;50.57;101600.06;4967349;28;4249;-66
2022/06/11 11:57:05;;;;;;;;;;;;;;;23.05;50.60;101602.94;4963328;28;4309;-67
2022/06/11 11:59:52;;;;;;;;;;;;;;;23.05;50.69;101605.84;4957142;28;4208;-67
2022/06/11 12:02:22;;;;;;;;;;;;;;;23.05;50.81;101611.59;4960680;28;4148;-66
2022/06/11 12:04:50;;;;;;;;;;;;;;;23.04;50.75;101607.22;4962936;28;4193;-67
2022/06/11 12:07:17;;;;;;;;;;;;;;;23.05;50.69;101605.84;4960607;28;4227;-67
2022/06/11 12:09:48;;;;;;;;;;;;;;;23.04;50.73;101610.09;4965401;28;4154;-67
2022/06/11 12:12:17;;;;;;;;;;;;;;;23.03;50.58;101611.50;4962490;28;4056;-67
2022/06/11 12:14:50;;;;;;;;;;;;;;;23.03;50.75;101605.75;4967189;28;4255;-67
2022/06/11 12:17:22;;;;;;;;;;;;;;;23.03;50.50;101608.63;4962824;28;4103;-66
2022/06/11 12:19:50;;;;;;;;;;;;;;;23.03;50.65;101611.50;4959680;28;4065;-67
2022/06/11 12:22:25;;;;;;;;;;;;;;;23.04;50.49;101604.31;4961848;28;4256;-66
2022/06/11 12:24:51;;;;;;;;;;;;;;;23.04;50.70;101604.31;4957310;28;5317;-67
2022/06/11 12:27:24;;;;;;;;;;;;;;;23.04;50.80;101604.31;4960813;28;4364;-66
2022/06/11 12:29:52;;;;;;;;;;;;;;;23.05;50.87;101600.06;4958196;28;4211;-66
2022/06/11 12:32:19;;;;;;;;;;;;;;;23.04;50.55;101598.56;4964713;28;4225;-67
2022/06/11 12:34:45;;;;;;;;;;;;;;;23.04;50.80;101605.06;4967544;28;4167;-67
2022/06/11 12:37:18;;;;;;;;;;;;;;;23.05;50.56;101597.91;4960360;28;4720;-67
2022/06/11 12:39:50;;;;;;;;;;;;;;;23.05;50.53;101605.84;4956533;28;4009;-67
2022/06/11 12:42:23;;;;;;;;;;;;;;;23.06;50.66;101601.53;4962809;28;4320;-67
2022/06/11 12:44:56;;;;;;;;;;;;;;;23.06;50.72;101589.97;4958368;28;4227;-66
2022/06/11 12:47:30;;;;;;;;;;;;;;;23.06;50.54;101601.53;4956336;28;5273;-70
2022/06/11 12:50:05;;;;;;;;;;;;;;;23.09;50.67;101595.22;4956364;28;4328;-63
2022/06/11 12:52:41;;;;;;;;;;;;;;;23.25;51.08;101594.47;4954166;28;4296;-68
2022/06/11 12:55:25;;;;;;;;;;;;;;;23.30;50.80;101588.22;4951632;28;5305;-69
2022/06/11 12:57:56;;;;;;;;;;;;;;;23.41;51.38;101595.97;4959459;28;5257;-63
2022/06/11 13:00:37;;;;;;;;;;;;;;;23.46;51.09;101587.47;4952698;28;4451;-70